Etusivu
METAR-TAF:

METAR-TAF

Lentoasemat :

Boscombe Down, Englanti

Leveyspiiri: 51-10N, Pituuspiiri: 001-45W, korkeus merenpinnasta: 124 m

Tämänhetkinen sää

Tämä raportti tehtiin 36 minuuttia sitten, kello 07.50 UTC
Tuuli 7 kn lännestä
Lämpötila 18°C
Kosteus 56%
Ilmanpaine 1025 hPa
Näkyvyys 10 km tai enemmän
ei pilviä alle 1500 m:ssä eikä cumulonimbus-pilviä

METAR: EGDM 130750Z 28007KT CAVOK 18/09 Q1025 NOSIG RMK BLU BLU

Aika: 09:26 (08:26 UTC)

Sääennuste

Tämä raportti tehtiin 2 tuntia ja 25 minuuttia sitten, kello 06.01 UTC
Ennuste voimassa 13. päivästä klo 07 UTC - 13. päivään klo 15 UTC
Tuuli 8 kn lounaasta
Näkyvyys 10 km tai enemmän
ei pilviä alle 1500 m:ssä eikä cumulonimbus-pilviä

TAF: EGDM 130601Z 1307/1315 23008KT CAVOK

Säähavainnot ja -ennusteet yli 4000 lentoasemalta (METAR- ja TAF-raportit).

Käytössä olevat sääasemat on merkitty karttaan keltaisilla ja punaisilla pisteillä.

Aseta hiiri pisteen päälle nähdäksesi sääaseman nimen.

Klikkaa sitten nähdäksesi säähavainnot ja -ennusteet.

Kartan vaihtaminen: klikkaa mustalla rastilla varustettuja vihreitä pisteitä, niin voit zoomata sisään; viivalla varustettua vihreää pistettä, niin voit zoomata ulos tai vihreitä nuolia, niin pääset viereisille kartoille.


METAR-TAF: